createdAt,value
2023-04-15T00:00:13.205Z,99919.38
2023-04-15T00:02:44.475Z,99999.56
2023-04-15T00:05:17.555Z,99906.69
2023-04-15T00:07:55.567Z,99997.31
2023-04-15T00:10:26.114Z,99978.06
2023-04-15T00:12:55.890Z,99996.25
2023-04-15T00:15:23.490Z,99992.84
2023-04-15T00:17:56.934Z,99766.78
2023-04-15T00:20:25.339Z,99981.06
2023-04-15T00:22:56.015Z,99897.25
2023-04-15T00:25:37.811Z,99907.22
2023-04-15T00:28:12.478Z,99975.56
2023-04-15T00:30:39.381Z,99935.09
2023-04-15T00:33:09.031Z,99974.88
2023-04-15T00:35:39.746Z,99967.50
2023-04-15T00:38:08.536Z,99976.84
2023-04-15T00:40:48.543Z,99865.28
2023-04-15T00:43:16.482Z,99975.94
2023-04-15T00:45:43.693Z,99979.63
2023-04-15T00:48:30.888Z,99950.84
2023-04-15T00:51:04.900Z,99953.00
2023-04-15T00:53:31.781Z,99967.63
2023-04-15T00:56:15.406Z,99939.88
2023-04-15T00:58:42.138Z,99980.34
2023-04-15T01:01:11.199Z,100002.38
2023-04-15T01:03:46.937Z,99998.72
2023-04-15T01:06:20.482Z,99999.25
2023-04-15T01:08:50.122Z,99974.44
2023-04-15T01:11:17.284Z,99996.41
2023-04-15T01:13:44.180Z,99900.88
2023-04-15T01:16:12.137Z,100010.72
2023-04-15T01:18:39.674Z,99979.41
2023-04-15T01:21:09.829Z,100025.09
2023-04-15T01:23:38.602Z,100023.94
2023-04-15T01:26:07.960Z,100027.75
2023-04-15T01:28:49.536Z,100026.63
2023-04-15T01:31:23.064Z,100022.59
2023-04-15T01:33:49.758Z,100024.75
2023-04-15T01:36:16.294Z,100017.09
2023-04-15T01:38:42.951Z,100001.09
2023-04-15T01:41:13.198Z,100014.06
2023-04-15T01:43:39.830Z,100010.59
2023-04-15T01:46:07.238Z,100036.94
2023-04-15T01:49:03.199Z,100030.06
2023-04-15T01:51:36.040Z,100025.75
2023-04-15T01:54:02.722Z,100031.44
2023-04-15T01:56:29.461Z,100034.41
2023-04-15T01:58:56.330Z,100032.06
2023-04-15T02:01:23.160Z,99991.25
2023-04-15T02:03:50.036Z,100034.75
2023-04-15T02:06:17.779Z,100022.09
2023-04-15T02:08:48.598Z,99983.28
2023-04-15T02:11:15.743Z,100010.75
2023-04-15T02:13:42.419Z,100007.75
2023-04-15T02:16:17.790Z,100039.06
2023-04-15T02:18:46.235Z,100038.91
2023-04-15T02:21:13.218Z,100050.41
2023-04-15T02:23:39.846Z,100030.41
2023-04-15T02:26:06.788Z,100043.56
2023-04-15T02:28:33.423Z,100048.41
2023-04-15T02:31:01.852Z,100021.06
2023-04-15T02:33:28.636Z,100048.25
2023-04-15T02:35:59.429Z,100033.56
2023-04-15T02:38:26.327Z,100012.75
2023-04-15T02:40:58.905Z,100033.41
2023-04-15T02:43:25.726Z,100033.41
2023-04-15T02:45:58.408Z,100026.75
2023-04-15T02:48:25.268Z,100030.75
2023-04-15T02:50:52.014Z,99940.16
2023-04-15T02:53:32.037Z,100031.41
2023-04-15T02:56:00.146Z,100026.75
2023-04-15T02:58:26.813Z,100032.09
2023-04-15T03:00:53.479Z,100005.94
2023-04-15T03:03:23.160Z,99986.44
2023-04-15T03:05:53.785Z,99998.09
2023-04-15T03:08:24.328Z,100021.91
2023-04-15T03:10:52.722Z,100027.09
2023-04-15T03:13:19.644Z,99944.16
2023-04-15T03:18:33.818Z,100013.75
2023-04-15T03:21:00.629Z,100029.41
2023-04-15T03:23:27.249Z,100010.06
2023-04-15T03:26:10.619Z,100010.09
2023-04-15T03:28:44.914Z,100036.22
2023-04-15T03:31:16.881Z,100010.91
2023-04-15T03:33:52.868Z,99995.25
2023-04-15T03:36:19.494Z,100026.75
2023-04-15T03:39:00.910Z,100030.72
2023-04-15T03:41:41.914Z,100025.91
2023-04-15T03:44:11.305Z,100031.91
2023-04-15T03:46:43.984Z,100022.41
2023-04-15T03:49:17.249Z,99979.13
2023-04-15T03:51:49.325Z,100027.06
2023-04-15T03:54:19.581Z,99982.78
2023-04-15T03:56:58.236Z,100009.75
2023-04-15T03:59:26.752Z,100022.75
2023-04-15T04:02:10.639Z,100001.09
2023-04-15T04:04:37.573Z,100028.06
2023-04-15T04:07:07.878Z,99959.25
2023-04-15T04:09:48.354Z,100029.06
2023-04-15T04:12:20.175Z,100042.72
2023-04-15T04:15:06.189Z,100028.22
2023-04-15T04:17:40.800Z,100037.75
2023-04-15T04:20:20.713Z,100025.72
2023-04-15T04:23:10.875Z,100008.56
2023-04-15T04:26:00.893Z,99979.88
2023-04-15T04:28:29.325Z,100048.03
2023-04-15T04:31:08.060Z,100045.69
2023-04-15T04:33:40.631Z,100029.72
2023-04-15T04:36:22.468Z,100057.38
2023-04-15T04:39:14.618Z,100028.03
2023-04-15T04:45:27.744Z,100012.00
2023-04-15T04:48:00.965Z,100059.66
2023-04-15T04:50:39.156Z,100026.34
2023-04-15T04:53:26.830Z,100057.50
2023-04-15T04:55:56.078Z,100044.81
2023-04-15T04:58:28.229Z,99940.63
2023-04-15T05:00:55.182Z,100056.34
2023-04-15T05:03:22.611Z,100010.50
2023-04-15T05:05:52.720Z,100067.81
2023-04-15T05:08:24.429Z,100059.81
2023-04-15T05:10:54.390Z,100075.66
2023-04-15T05:13:29.247Z,100052.47
2023-04-15T05:16:02.172Z,100027.69
2023-04-15T05:18:31.547Z,100072.66
2023-04-15T05:21:02.453Z,100080.00
2023-04-15T05:23:29.358Z,100066.47
2023-04-15T05:26:04.144Z,100047.16
2023-04-15T05:28:37.221Z,100071.31
2023-04-15T05:31:13.156Z,100045.66
2023-04-15T05:39:24.484Z,100086.03
2023-04-15T05:41:56.285Z,100047.00
2023-04-15T05:44:23.010Z,99993.38
2023-04-15T05:46:51.650Z,100049.69
2023-04-15T05:49:21.491Z,100084.38
2023-04-15T05:51:57.979Z,100090.03
2023-04-15T05:54:30.384Z,100079.53
2023-04-15T05:57:07.210Z,100060.41
2023-04-15T05:59:34.047Z,99878.97
2023-04-15T06:02:01.344Z,100058.38
2023-04-15T06:04:28.414Z,100093.41
2023-04-15T06:06:55.251Z,100072.41
2023-04-15T06:09:25.845Z,100095.41
2023-04-15T06:11:57.059Z,100097.75
2023-04-15T06:14:26.964Z,100102.09
2023-04-15T06:17:09.224Z,100104.41
2023-04-15T06:19:36.800Z,99954.00
2023-04-15T06:22:03.751Z,100031.41
2023-04-15T06:24:34.917Z,100062.91
2023-04-15T06:27:13.908Z,100053.28
2023-04-15T06:29:54.294Z,100099.72
2023-04-15T06:32:24.237Z,100078.09
2023-04-15T06:35:00.286Z,100104.88
2023-04-15T06:37:30.082Z,100072.72
2023-04-15T06:39:56.891Z,99902.22
2023-04-15T06:42:26.230Z,100130.06
2023-04-15T06:44:55.529Z,100030.44
2023-04-15T06:47:22.439Z,100105.38
2023-04-15T06:50:10.246Z,100130.00
2023-04-15T06:52:36.926Z,100069.56
2023-04-15T06:55:03.920Z,100087.03
2023-04-15T06:57:35.077Z,100085.56
2023-04-15T07:00:02.465Z,100125.53
2023-04-15T07:02:29.537Z,100127.38
2023-04-15T07:05:06.612Z,100114.53
2023-04-15T07:10:30.430Z,100114.03
2023-04-15T07:12:57.370Z,100097.06
2023-04-15T07:15:24.063Z,100127.34
2023-04-15T07:17:53.775Z,100120.00
2023-04-15T07:20:23.559Z,100140.00
2023-04-15T07:22:50.296Z,100097.38
2023-04-15T07:25:26.528Z,100019.44
2023-04-15T07:27:59.799Z,100062.69
2023-04-15T07:30:31.785Z,100132.44
2023-04-15T07:33:13.697Z,100045.38
2023-04-15T07:35:45.825Z,100139.22
2023-04-15T07:38:15.668Z,100138.56
2023-04-15T07:40:45.412Z,100135.13
2023-04-15T07:43:13.642Z,100137.06
2023-04-15T07:45:40.508Z,100121.47
2023-04-15T07:48:20.136Z,100125.63
2023-04-15T07:50:49.515Z,100135.16
2023-04-15T07:53:35.047Z,100108.63
2023-04-15T07:56:01.787Z,100117.38
2023-04-15T07:58:31.242Z,100073.47
2023-04-15T08:00:57.992Z,100124.06
2023-04-15T08:03:28.448Z,99970.59
2023-04-15T08:05:56.505Z,100126.06
2023-04-15T08:08:23.323Z,100140.25
2023-04-15T08:10:52.507Z,100120.13
2023-04-15T08:13:20.954Z,100110.03
2023-04-15T08:16:23.577Z,100117.69
2023-04-15T08:18:52.969Z,100141.19
2023-04-15T08:21:20.380Z,100140.75
2023-04-15T08:23:51.472Z,100145.44
2023-04-15T08:26:31.789Z,100138.03
2023-04-15T08:29:13.372Z,100138.03
2023-04-15T08:31:45.111Z,100114.91
2023-04-15T08:34:12.635Z,100109.38
2023-04-15T08:36:49.641Z,100136.84
2023-04-15T08:39:24.052Z,100132.06
2023-04-15T08:42:28.693Z,99991.41
2023-04-15T08:44:56.788Z,100052.94
2023-04-15T08:47:36.782Z,99968.69
2023-04-15T08:50:25.404Z,100095.88
2023-04-15T08:53:17.493Z,100053.94
2023-04-15T08:56:03.406Z,100124.66
2023-04-15T08:58:51.244Z,100122.66
2023-04-15T09:01:31.955Z,100073.13
2023-04-15T09:04:10.477Z,100105.78
2023-04-15T09:06:59.101Z,100123.78
2023-04-15T09:09:31.041Z,100106.31
2023-04-15T09:12:02.885Z,100062.00
2023-04-15T09:14:42.000Z,100050.75
2023-04-15T09:17:35.752Z,100120.72
2023-04-15T09:20:33.124Z,100121.19
2023-04-15T09:23:14.295Z,100101.31
2023-04-15T09:25:46.822Z,100107.22
2023-04-15T09:28:35.989Z,99942.66
2023-04-15T09:31:34.559Z,100108.94
2023-04-15T09:34:05.276Z,100098.81
2023-04-15T09:36:49.106Z,100110.97
2023-04-15T09:39:17.248Z,100103.56
2023-04-15T09:42:11.580Z,100112.84
2023-04-15T09:44:38.776Z,100107.16
2023-04-15T09:47:06.116Z,100043.31
2023-04-15T09:49:55.582Z,100076.88
2023-04-15T09:52:25.532Z,100088.78
2023-04-15T09:54:56.662Z,100076.75
2023-04-15T09:57:45.524Z,100080.63
2023-04-15T10:00:29.118Z,100075.31
2023-04-15T10:02:59.375Z,100074.16
2023-04-15T10:05:31.877Z,100058.47
2023-04-15T10:08:13.769Z,100096.03
2023-04-15T10:11:01.060Z,100101.44
2023-04-15T10:13:39.888Z,100083.50
2023-04-15T10:16:16.519Z,100091.84
2023-04-15T10:19:05.004Z,100076.75
2023-04-15T10:21:42.593Z,100063.91
2023-04-15T10:24:11.550Z,100049.63
2023-04-15T10:26:39.183Z,99986.88
2023-04-15T10:29:06.953Z,100084.44
2023-04-15T10:31:34.297Z,100062.50
2023-04-15T10:34:05.544Z,100086.53
2023-04-15T10:36:42.156Z,100073.69
2023-04-15T10:39:41.894Z,100069.50
2023-04-15T10:42:21.679Z,100065.81
2023-04-15T10:44:58.441Z,100072.38
2023-04-15T10:47:51.862Z,100070.69
2023-04-15T10:50:31.787Z,100051.56
2023-04-15T10:53:03.709Z,100030.84
2023-04-15T10:55:46.547Z,100032.06
2023-04-15T10:58:25.566Z,100033.66
2023-04-15T11:00:57.819Z,99943.84
2023-04-15T11:03:49.610Z,100062.88
2023-04-15T11:06:16.703Z,100073.38
2023-04-15T11:09:06.264Z,100067.34
2023-04-15T11:12:15.046Z,100065.38
2023-04-15T11:14:43.501Z,100034.56
2023-04-15T11:17:10.471Z,100034.47
2023-04-15T11:19:43.945Z,100037.25
2023-04-15T11:22:11.813Z,100061.16
2023-04-15T11:24:52.092Z,100044.59
2023-04-15T11:27:27.205Z,100064.88
2023-04-15T11:29:56.822Z,100058.91
2023-04-15T11:32:23.823Z,100062.63
2023-04-15T11:34:54.993Z,100060.97
2023-04-15T11:37:32.501Z,100029.06
2023-04-15T11:40:06.700Z,100053.88
2023-04-15T11:42:46.728Z,99998.44
2023-04-15T11:45:16.636Z,100053.88
2023-04-15T11:50:31.787Z,100037.47
2023-04-15T11:53:06.910Z,100025.06
2023-04-15T11:55:49.416Z,100009.28
2023-04-15T11:58:24.541Z,99998.97
2023-04-15T12:00:59.132Z,100049.88
2023-04-15T12:03:29.973Z,100002.22
2023-04-15T12:06:27.907Z,100020.94
2023-04-15T12:09:25.325Z,100046.38
2023-04-15T12:12:11.848Z,99992.91
2023-04-15T12:14:45.415Z,100045.88
2023-04-15T12:17:18.891Z,99968.97
2023-04-15T12:19:45.913Z,100018.34
2023-04-15T12:22:20.128Z,100016.94
2023-04-15T12:24:55.102Z,100021.38
2023-04-15T12:27:29.886Z,100030.16
2023-04-15T12:30:06.471Z,99930.34
2023-04-15T12:32:40.973Z,100036.59
2023-04-15T12:35:09.745Z,100031.22
2023-04-15T12:37:36.467Z,100045.97
2023-04-15T12:40:09.674Z,99991.78
2023-04-15T12:42:37.048Z,100044.06
2023-04-15T12:45:04.084Z,99882.91
2023-04-15T12:47:31.100Z,100034.81
2023-04-15T12:49:58.014Z,99875.88
2023-04-15T12:55:09.602Z,99985.59
2023-04-15T12:57:40.748Z,99989.06
2023-04-15T13:00:12.175Z,100014.31
2023-04-15T13:02:57.538Z,100031.53
2023-04-15T13:05:24.456Z,99928.69
2023-04-15T13:07:51.461Z,99894.94
2023-04-15T13:10:20.798Z,100004.34
2023-04-15T13:12:52.729Z,100030.13
2023-04-15T13:15:25.298Z,100029.41
2023-04-15T13:17:55.822Z,99831.34
2023-04-15T13:20:28.519Z,99858.88
2023-04-15T13:22:55.404Z,99877.25
2023-04-15T13:25:22.442Z,99951.34
2023-04-15T13:27:52.523Z,99807.31
2023-04-15T13:30:19.362Z,99858.34
2023-04-15T13:32:46.634Z,99999.00
2023-04-15T13:35:17.195Z,99911.00
2023-04-15T13:37:50.034Z,99896.91
2023-04-15T13:40:18.434Z,100013.78
2023-04-15T13:42:48.234Z,100023.72
2023-04-15T13:45:21.567Z,100012.81
2023-04-15T13:47:48.244Z,100019.63
2023-04-15T13:50:14.986Z,99996.25
2023-04-15T13:52:42.942Z,100004.19
2023-04-15T13:55:19.906Z,100003.00
2023-04-15T13:57:48.268Z,99901.00
2023-04-15T14:00:15.680Z,100020.09
2023-04-15T14:02:42.718Z,99988.50
2023-04-15T14:05:13.713Z,100003.41
2023-04-15T14:07:41.046Z,99996.25
2023-04-15T14:10:13.599Z,99983.38
2023-04-15T14:12:41.433Z,99978.25
2023-04-15T14:15:08.730Z,99994.56
2023-04-15T14:17:35.863Z,100004.56
2023-04-15T14:20:29.370Z,99941.41
2023-04-15T14:22:57.013Z,99963.56
2023-04-15T14:25:33.174Z,99984.28
2023-04-15T14:28:03.755Z,99993.84
2023-04-15T14:30:43.864Z,99977.66
2023-04-15T14:33:13.468Z,99870.28
2023-04-15T14:35:40.301Z,99967.81
2023-04-15T14:38:11.015Z,99981.75
2023-04-15T14:40:38.202Z,99996.44
2023-04-15T14:43:10.789Z,99992.88
2023-04-15T14:45:43.340Z,99968.75
2023-04-15T14:48:35.901Z,99981.16
2023-04-15T14:51:02.675Z,99987.66
2023-04-15T14:53:29.391Z,99996.00
2023-04-15T14:55:56.106Z,99990.41
2023-04-15T14:58:28.117Z,99987.34
2023-04-15T15:00:54.941Z,99974.38
2023-04-15T15:03:21.848Z,99984.91
2023-04-15T15:05:48.790Z,99977.00
2023-04-15T15:08:20.943Z,99787.94
2023-04-15T15:10:50.023Z,99951.69
2023-04-15T15:13:20.542Z,99877.06
2023-04-15T15:15:51.186Z,99791.66
2023-04-15T15:18:21.344Z,99987.28
2023-04-15T15:20:54.216Z,99941.97
2023-04-15T15:23:21.054Z,99935.34
2023-04-15T15:25:53.295Z,100008.13
2023-04-15T15:28:21.902Z,99950.28
2023-04-15T15:30:48.786Z,99858.84
2023-04-15T15:33:30.237Z,100006.34
2023-04-15T15:35:58.343Z,99983.78
2023-04-15T15:38:39.892Z,99896.72
2023-04-15T15:41:09.833Z,99924.00
2023-04-15T15:43:39.502Z,99962.94
2023-04-15T15:46:09.815Z,99965.63
2023-04-15T15:48:38.475Z,99841.91
2023-04-15T15:51:11.124Z,99984.66
2023-04-15T15:53:37.931Z,100029.38
2023-04-15T15:56:08.507Z,99976.59
2023-04-15T15:58:40.827Z,99849.72
2023-04-15T16:01:07.652Z,99942.84
2023-04-15T16:03:35.224Z,100013.66
2023-04-15T16:06:02.270Z,100005.97
2023-04-15T16:08:36.593Z,99837.28
2023-04-15T16:11:03.436Z,100057.53
2023-04-15T16:13:42.236Z,100058.75
2023-04-15T16:16:09.625Z,100041.16
2023-04-15T16:18:36.661Z,99942.75
2023-04-15T16:21:03.571Z,99960.16
2023-04-15T16:23:31.277Z,99983.84
2023-04-15T16:26:01.245Z,99919.63
2023-04-15T16:28:31.227Z,100052.34
2023-04-15T16:31:07.718Z,99932.56
2023-04-15T16:33:38.105Z,100098.38
2023-04-15T16:36:05.679Z,99879.03
2023-04-15T16:38:35.813Z,100024.47
2023-04-15T16:41:02.725Z,99887.75
2023-04-15T16:43:30.166Z,100087.72
2023-04-15T16:45:57.017Z,100112.66
2023-04-15T16:48:24.372Z,100033.75
2023-04-15T16:51:03.990Z,100124.91
2023-04-15T16:53:33.617Z,100127.22
2023-04-15T16:56:13.378Z,100089.47
2023-04-15T16:58:53.513Z,100126.47
2023-04-15T17:01:34.085Z,100141.03
2023-04-15T17:04:11.545Z,100149.53
2023-04-15T17:06:41.939Z,100162.53
2023-04-15T17:12:36.892Z,100172.38
2023-04-15T17:15:11.111Z,100177.88
2023-04-15T17:17:59.941Z,100183.00
2023-04-15T17:20:26.785Z,100122.31
2023-04-15T17:22:53.901Z,100173.09
2023-04-15T17:25:26.744Z,100188.53
2023-04-15T17:27:53.522Z,100163.22
2023-04-15T17:30:20.465Z,100167.56
2023-04-15T17:32:55.869Z,100023.69
2023-04-15T17:35:26.103Z,100191.31
2023-04-15T17:37:52.909Z,100194.06
2023-04-15T17:40:19.806Z,100064.75
2023-04-15T17:42:49.595Z,99992.88
2023-04-15T17:45:16.529Z,100188.88
2023-04-15T17:47:43.538Z,100221.97
2023-04-15T17:50:17.423Z,100230.47
2023-04-15T17:52:48.517Z,100119.44
2023-04-15T17:55:17.226Z,100072.44
2023-04-15T17:57:46.363Z,100154.34
2023-04-15T18:00:13.888Z,100206.81
2023-04-15T18:02:46.377Z,100240.84
2023-04-15T18:05:13.605Z,100244.47
2023-04-15T18:07:40.783Z,100226.78
2023-04-15T18:10:08.895Z,100210.53
2023-04-15T18:12:36.010Z,100228.63
2023-04-15T18:15:02.886Z,100250.19
2023-04-15T18:17:29.924Z,100260.69
2023-04-15T18:19:58.805Z,100138.16
2023-04-15T18:22:25.668Z,100252.47
2023-04-15T18:24:52.490Z,100277.59
2023-04-15T18:27:24.903Z,100268.81
2023-04-15T18:29:53.424Z,100281.56
2023-04-15T18:32:24.060Z,100277.94
2023-04-15T18:34:55.761Z,100279.19
2023-04-15T18:37:22.684Z,100307.59
2023-04-15T18:39:51.663Z,100309.22
2023-04-15T18:42:21.259Z,100225.25
2023-04-15T18:44:55.521Z,100183.53
2023-04-15T18:47:28.180Z,100219.69
2023-04-15T18:49:57.162Z,100307.56
2023-04-15T18:52:31.424Z,100195.84
2023-04-15T18:55:04.071Z,100186.56
2023-04-15T18:57:34.882Z,100329.81
2023-04-15T19:00:11.194Z,100284.44
2023-04-15T19:05:28.194Z,100146.81
2023-04-15T19:07:59.654Z,100265.75
2023-04-15T19:10:34.982Z,100218.44
2023-04-15T19:13:22.269Z,100157.22
2023-04-15T19:15:54.313Z,100143.91
2023-04-15T19:18:24.593Z,100358.59
2023-04-15T19:20:55.127Z,100294.94
2023-04-15T19:23:25.080Z,100359.16
2023-04-15T19:25:53.502Z,100368.94
2023-04-15T19:28:29.830Z,100400.03
2023-04-15T19:31:07.748Z,100237.13
2023-04-15T19:33:35.907Z,100399.38
2023-04-15T19:36:09.178Z,100380.22
2023-04-15T19:38:37.225Z,100372.41
2023-04-15T19:41:06.434Z,100399.09
2023-04-15T19:43:36.409Z,100406.09
2023-04-15T19:46:03.479Z,100335.56
2023-04-15T19:48:30.570Z,100423.53
2023-04-15T19:51:04.520Z,100285.47
2023-04-15T19:53:36.486Z,100424.25
2023-04-15T19:56:34.658Z,100180.41
2023-04-15T19:59:05.784Z,100353.22
2023-04-15T20:01:47.046Z,100204.41
2023-04-15T20:04:22.742Z,100212.09
2023-04-15T20:06:54.382Z,100305.16
2023-04-15T20:09:23.314Z,100212.44
2023-04-15T20:12:49.232Z,100232.09
2023-04-15T20:14:58.280Z,100200.09
2023-04-15T20:17:24.988Z,100392.94
2023-04-15T20:19:59.780Z,100443.41
2023-04-15T20:22:26.699Z,100246.09
2023-04-15T20:24:53.660Z,100452.78
2023-04-15T20:27:21.277Z,100231.03
2023-04-15T20:29:54.115Z,100382.09
2023-04-15T20:32:21.196Z,100428.66
2023-04-15T20:34:56.734Z,100394.59
2023-04-15T20:37:26.878Z,100460.72
2023-04-15T20:39:56.743Z,100461.03
2023-04-15T20:42:23.703Z,100365.34
2023-04-15T20:44:55.360Z,100280.81
2023-04-15T20:47:26.983Z,100487.41
2023-04-15T20:49:54.419Z,100487.06
2023-04-15T20:52:27.025Z,100495.22
2023-04-15T20:54:53.867Z,100460.31
2023-04-15T20:57:24.869Z,100420.16
2023-04-15T20:59:51.999Z,100476.63
2023-04-15T21:02:36.158Z,100432.78
2023-04-15T21:05:03.583Z,100415.91
2023-04-15T21:07:36.110Z,100433.41
2023-04-15T21:10:06.645Z,100428.06
2023-04-15T21:12:38.054Z,100513.34
2023-04-15T21:15:05.474Z,100524.31
2023-04-15T21:17:33.704Z,100523.81
2023-04-15T21:20:09.853Z,100517.94
2023-04-15T21:22:36.627Z,100479.44
2023-04-15T21:25:06.935Z,100530.78
2023-04-15T21:27:33.809Z,100530.91
2023-04-15T21:30:08.874Z,100399.13
2023-04-15T21:32:41.542Z,100533.56
2023-04-15T21:35:08.798Z,100511.78
2023-04-15T21:37:42.855Z,100531.88
2023-04-15T21:40:09.766Z,100501.88
2023-04-15T21:42:36.419Z,100512.44
2023-04-15T21:45:05.814Z,100538.53
2023-04-15T21:50:16.388Z,100449.56
2023-04-15T21:52:50.944Z,100508.97
2023-04-15T21:55:20.967Z,100519.88
2023-04-15T21:58:08.063Z,100535.44
2023-04-15T22:00:37.134Z,100531.59
2023-04-15T22:03:10.494Z,100545.13
2023-04-15T22:05:37.559Z,100488.47
2023-04-15T22:08:10.387Z,100546.84
2023-04-15T22:10:40.629Z,100490.75
2023-04-15T22:13:12.421Z,100357.91
2023-04-15T22:15:41.334Z,100527.72
2023-04-15T22:18:08.038Z,100329.94
2023-04-15T22:20:34.769Z,100520.13
2023-04-15T22:23:06.243Z,100481.94
2023-04-15T22:25:33.193Z,100499.00
2023-04-15T22:28:02.803Z,100567.31
2023-04-15T22:30:32.923Z,100563.69
2023-04-15T22:33:18.703Z,100354.25
2023-04-15T22:35:45.569Z,100458.19
2023-04-15T22:38:12.344Z,100484.28
2023-04-15T22:40:41.822Z,100356.19
2023-04-15T22:43:08.714Z,100400.97
2023-04-15T22:45:35.442Z,100565.44
2023-04-15T22:48:08.286Z,100575.56
2023-04-15T22:50:37.286Z,100552.13
2023-04-15T22:55:53.576Z,100532.09
2023-04-15T22:58:20.426Z,100545.13
2023-04-15T23:01:00.160Z,100592.66
2023-04-15T23:03:30.442Z,100585.69
2023-04-15T23:05:57.278Z,100521.69
2023-04-15T23:08:24.091Z,100482.03
2023-04-15T23:10:51.208Z,100391.84
2023-04-15T23:13:44.103Z,100593.78
2023-04-15T23:16:11.273Z,100584.63
2023-04-15T23:18:38.041Z,100572.50
2023-04-15T23:21:13.027Z,100553.19
2023-04-15T23:23:40.947Z,100562.09
2023-04-15T23:26:07.782Z,100573.66
2023-04-15T23:28:34.578Z,100601.06
2023-04-15T23:31:01.427Z,100593.53
2023-04-15T23:33:29.242Z,100598.94
2023-04-15T23:35:57.545Z,100610.13
2023-04-15T23:38:27.362Z,100525.00
2023-04-15T23:40:54.162Z,100617.50
2023-04-15T23:43:20.960Z,100547.56
2023-04-15T23:45:50.727Z,100573.81
2023-04-15T23:48:28.414Z,100616.88
2023-04-15T23:51:03.707Z,100548.16
2023-04-15T23:53:36.733Z,100556.16
2023-04-15T23:56:06.696Z,100552.31
2023-04-15T23:58:42.627Z,100612.97
